Time;durP1;ratioP1;P1;durP2;ratioP2;P2;SDS_P1;SDS_P2;PMS_P1;PMS_P2;Temp;Humidity;BMP_temperature;BMP_pressure;BME280_temperature;BME280_humidity;BME280_pressure;Samples;Min_cycle;Max_cycle;Signal;HPM_P1;HPM_P2
2022/01/10 00:01:56;;;;;;;48.78;22.90;;;;;;;-1.02;100.00;98919.75;5080666;28;20036;-74
2022/01/10 00:04:40;;;;;;;39.90;18.50;;;;;;;-0.91;100.00;98930.97;5080800;28;20048;-74
2022/01/10 00:07:24;;;;;;;35.83;16.88;;;;;;;-0.88;100.00;98932.69;5097628;28;20048;-74
2022/01/10 00:10:10;;;;;;;42.65;20.10;;;;;;;-0.91;100.00;98930.97;5084636;28;20222;-74
2022/01/10 00:12:55;;;;;;;42.15;19.10;;;;;;;-0.84;100.00;98935.31;5084590;28;20047;-74
2022/01/10 00:15:39;;;;;;;50.50;22.27;;;;;;;-0.97;100.00;98921.50;5070572;28;20044;-74
2022/01/10 00:18:24;;;;;;;64.10;28.02;;;;;;;-0.95;100.00;98944.63;5087159;28;20406;-74
2022/01/10 00:21:08;;;;;;;60.25;28.25;;;;;;;-0.87;100.00;98940.41;5084407;28;20360;-74
2022/01/10 00:23:53;;;;;;;55.30;25.63;;;;;;;-0.86;100.00;98937.00;5053437;28;20044;-74
2022/01/10 00:26:37;;;;;;;55.60;26.20;;;;;;;-0.85;100.00;98945.56;5084309;28;20040;-74
2022/01/10 00:29:22;;;;;;;57.38;25.00;;;;;;;-0.94;100.00;98951.53;5084499;28;20047;-75
2022/01/10 00:32:07;;;;;;;48.80;23.45;;;;;;;-0.93;100.00;98955.81;5067510;28;20125;-75
2022/01/10 00:34:52;;;;;;;52.75;24.15;;;;;;;-0.90;100.00;98954.97;5084151;28;20055;-75
2022/01/10 00:37:37;;;;;;;53.47;24.33;;;;;;;-0.85;100.00;98961.00;5070175;28;20122;-75
2022/01/10 00:40:24;;;;;;;52.20;23.23;;;;;;;-0.89;100.00;98956.69;5070148;28;20044;-75
2022/01/10 00:43:17;;;;;;;53.95;24.95;;;;;;;-1.00;100.00;98962.59;5083919;28;20036;-75
2022/01/10 00:46:03;;;;;;;57.17;26.67;;;;;;;-0.99;100.00;98969.47;5086666;28;20052;-75
2022/01/10 00:48:48;;;;;;;68.28;33.83;;;;;;;-0.88;100.00;98974.69;5069966;28;20122;-75
2022/01/10 00:51:33;;;;;;;58.72;28.10;;;;;;;-0.78;100.00;98966.22;5083954;28;20498;-75
2022/01/10 00:54:18;;;;;;;55.25;25.05;;;;;;;-0.72;100.00;98971.38;5098852;28;20048;-74
2022/01/10 00:57:03;;;;;;;58.08;24.48;;;;;;;-0.78;100.00;98978.19;5083768;28;20036;-75
2022/01/10 00:59:47;;;;;;;59.95;26.38;;;;;;;-0.83;100.00;98974.72;5083705;28;20040;-74
2022/01/10 01:02:32;;;;;;;51.17;23.42;;;;;;;-0.88;100.00;98981.53;5083657;28;20338;-75
2022/01/10 01:05:19;;;;;;;58.10;25.08;;;;;;;-0.73;100.00;98989.38;5069458;28;20345;-75
2022/01/10 01:08:07;;;;;;;48.47;22.73;;;;;;;-0.68;100.00;99000.56;5069602;28;20093;-74
2022/01/10 01:11:20;;;;;;;49.80;23.73;;;;;;;-0.68;100.00;98999.69;5083506;28;20040;-74
2022/01/10 01:14:09;;;;;;;60.58;28.15;;;;;;;-0.75;100.00;98998.78;5083445;28;20072;-74
2022/01/10 01:17:10;;;;;;;56.33;24.55;;;;;;;-0.73;100.00;98997.09;5069179;28;20070;-75
2022/01/10 01:26:02;;;;;;;53.90;21.90;;;;;;;-0.59;100.00;99023.75;5036433;28;20049;-74
2022/01/10 01:28:46;;;;;;;46.90;21.38;;;;;;;-0.68;100.00;99023.72;5083112;28;20436;-75
2022/01/10 01:31:31;;;;;;;51.85;23.83;;;;;;;-0.67;100.00;99029.72;5069150;28;20395;-74
2022/01/10 01:34:18;;;;;;;52.30;24.20;;;;;;;-0.61;100.00;99029.75;5098188;28;20040;-75
2022/01/10 01:37:03;;;;;;;51.25;24.55;;;;;;;-0.58;100.00;99030.66;5083048;28;20360;-74
2022/01/10 01:39:48;;;;;;;46.80;21.73;;;;;;;-0.65;100.00;99012.56;5083030;28;20047;-74
2022/01/10 01:42:37;;;;;;;56.35;23.35;;;;;;;-0.69;100.00;99028.84;5111558;28;20044;-74
2022/01/10 01:45:41;;;;;;;55.25;24.02;;;;;;;-0.49;100.00;99041.00;5069035;28;20110;-75
2022/01/10 01:48:25;;;;;;;59.22;26.05;;;;;;;-0.56;100.00;99043.50;5068734;28;20118;-75
2022/01/10 01:51:10;;;;;;;56.92;24.50;;;;;;;-0.52;100.00;99040.97;5082680;28;20044;-75
2022/01/10 01:53:55;;;;;;;53.63;24.08;;;;;;;-0.42;100.00;99049.63;5068388;28;20101;-74
2022/01/10 01:56:39;;;;;;;52.97;24.02;;;;;;;-0.35;100.00;99060.81;5065881;28;20447;-75
2022/01/10 01:59:25;;;;;;;65.00;27.05;;;;;;;-0.47;100.00;99059.00;5082732;28;20044;-75
2022/01/10 02:02:10;;;;;;;63.28;26.35;;;;;;;-0.53;100.00;99077.84;5097834;28;20115;-74
2022/01/10 02:04:54;;;;;;;63.75;27.90;;;;;;;-0.50;100.00;99067.56;5068378;28;20036;-75
2022/01/10 02:07:39;;;;;;;62.58;27.77;;;;;;;-0.52;100.00;99073.53;5051721;28;20150;-75
2022/01/10 02:10:24;;;;;;;62.03;26.80;;;;;;;-0.47;100.00;99070.16;5085077;28;20048;-74
2022/01/10 02:13:11;;;;;;;68.53;27.23;;;;;;;-0.51;100.00;99067.56;5082660;28;20121;-75
2022/01/10 02:16:01;;;;;;;65.75;29.38;;;;;;;-0.42;100.00;99079.63;5082283;28;20349;-74
2022/01/10 02:18:49;;;;;;;63.50;28.77;;;;;;;-0.39;100.00;99070.25;5065276;28;20047;-75
2022/01/10 02:21:35;;;;;;;54.67;25.02;;;;;;;-0.41;100.00;99091.66;5082242;28;20048;-74
2022/01/10 02:24:20;;;;;;;56.20;25.92;;;;;;;-0.38;100.00;99078.81;5067875;28;20048;-75
2022/01/10 02:27:05;;;;;;;60.45;26.95;;;;;;;-0.31;100.00;99086.56;5081988;28;20036;-75
2022/01/10 02:29:50;;;;;;;54.38;25.35;;;;;;;-0.30;100.00;99102.88;5067487;28;20044;-75
2022/01/10 02:32:35;;;;;;;66.10;30.17;;;;;;;-0.42;100.00;99080.50;5082078;28;20047;-74
2022/01/10 02:35:34;;;;;;;64.68;29.98;;;;;;;-0.41;100.00;99097.66;5081913;28;20044;-74
2022/01/10 02:38:19;;;;;;;68.25;31.10;;;;;;;-0.32;100.00;99097.72;5096789;28;20094;-74
2022/01/10 02:41:04;;;;;;;69.90;30.00;;;;;;;-0.34;100.00;99101.13;5081919;28;20055;-74
2022/01/10 02:43:48;;;;;;;77.03;32.40;;;;;;;-0.42;100.00;99108.81;5081587;28;20044;-74
2022/01/10 02:46:37;;;;;;;75.78;32.70;;;;;;;-0.38;100.00;99102.84;5081688;28;20047;-75
2022/01/10 02:49:27;;;;;;;77.13;33.33;;;;;;;-0.34;100.00;99119.16;5068018;28;20044;-74
2022/01/10 02:52:12;;;;;;;84.85;34.60;;;;;;;-0.52;100.00;99122.44;5096477;28;20051;-75
2022/01/10 02:55:00;;;;;;;76.72;35.90;;;;;;;-0.46;100.00;99127.63;5067505;28;20044;-75
2022/01/10 02:57:45;;;;;;;77.60;34.22;;;;;;;-0.41;100.00;99133.69;5081506;28;20041;-74
2022/01/10 03:00:30;;;;;;;72.53;33.13;;;;;;;-0.44;100.00;99133.66;5081438;28;20040;-74
2022/01/10 03:03:15;;;;;;;76.18;34.97;;;;;;;-0.62;100.00;99136.91;5110023;28;20044;-75
2022/01/10 03:06:01;;;;;;;87.57;38.42;;;;;;;-0.65;100.00;99134.34;5081351;28;20089;-75
2022/01/10 03:08:45;;;;;;;76.45;33.50;;;;;;;-0.51;100.00;99139.59;5081320;28;20040;-75
2022/01/10 03:11:35;;;;;;;75.45;34.00;;;;;;;-0.44;100.00;99137.94;5081412;28;20058;-75
2022/01/10 03:14:20;;;;;;;72.68;34.92;;;;;;;-0.43;100.00;99155.97;5110013;28;20073;-75
2022/01/10 03:17:05;;;;;;;86.85;37.92;;;;;;;-0.54;100.00;99148.16;5096165;28;20040;-75
2022/01/10 03:19:49;;;;;;;86.57;38.13;;;;;;;-0.63;100.00;99158.34;5067010;28;20040;-75
2022/01/10 03:22:34;;;;;;;90.53;41.85;;;;;;;-0.81;100.00;99158.19;5081138;28;20048;-74
2022/01/10 03:25:19;;;;;;;84.07;39.25;;;;;;;-0.83;100.00;99165.88;5096211;28;20044;-75
2022/01/10 03:28:07;;;;;;;90.25;38.83;;;;;;;-0.89;100.00;99173.53;5067293;28;20040;-74
2022/01/10 03:30:51;;;;;;;84.13;38.25;;;;;;;-0.98;100.00;99170.84;5067021;28;20040;-74
2022/01/10 03:33:38;;;;;;;85.03;37.78;;;;;;;-0.91;100.00;99177.81;5081116;28;20399;-75
2022/01/10 03:36:22;;;;;;;90.75;38.60;;;;;;;-0.93;100.00;99187.19;5095945;28;20040;-74
2022/01/10 03:39:07;;;;;;;86.68;37.10;;;;;;;-1.08;100.00;99193.00;5095926;28;20041;-75
2022/01/10 03:41:52;;;;;;;84.72;35.65;;;;;;;-1.13;100.00;99191.25;5082052;28;20040;-75
2022/01/10 03:44:37;;;;;;;85.78;37.95;;;;;;;-1.25;100.00;99190.25;5085096;28;20040;-74
2022/01/10 03:47:22;;;;;;;83.57;36.90;;;;;;;-1.29;100.00;99190.19;5100332;28;20047;-74
2022/01/10 03:50:08;;;;;;;83.72;40.40;;;;;;;-1.36;100.00;99207.25;5099232;28;20055;-75
2022/01/10 03:52:53;;;;;;;91.00;39.47;;;;;;;-1.44;100.00;99219.09;5084680;28;20429;-74
2022/01/10 03:55:38;;;;;;;86.28;39.20;;;;;;;-1.46;100.00;99213.97;5099888;28;20047;-74
2022/01/10 03:58:25;;;;;;;84.53;38.00;;;;;;;-1.46;100.00;99213.97;5098911;28;20330;-74
2022/01/10 04:01:12;;;;;;;93.40;40.15;;;;;;;-1.57;100.00;99222.34;5070604;28;20040;-74
2022/01/10 04:03:57;;;;;;;95.22;44.22;;;;;;;-1.73;100.00;99228.97;5084702;28;20066;-74
2022/01/10 04:06:41;;;;;;;95.45;43.25;;;;;;;-1.70;100.00;99214.47;5084850;28;20050;-74
2022/01/10 04:09:26;;;;;;;91.38;44.45;;;;;;;-1.87;100.00;99223.63;5084689;28;20432;-74
2022/01/10 04:12:10;;;;;;;93.55;43.45;;;;;;;-1.83;100.00;99245.94;5084792;28;20048;-74
2022/01/10 04:14:54;;;;;;;88.78;40.65;;;;;;;-1.78;100.00;99243.44;5113235;28;20040;-74
2022/01/10 04:17:39;;;;;;;96.18;43.47;;;;;;;-1.82;100.00;99249.34;5070575;28;20432;-74
2022/01/10 04:20:24;;;;;;;97.45;43.85;;;;;;;-1.94;100.00;99255.19;5084702;28;20044;-74
2022/01/10 04:23:11;;;;;;;105.60;46.80;;;;;;;-1.91;100.00;99252.66;5084411;28;20036;-74
2022/01/10 04:25:56;;;;;;;97.45;46.47;;;;;;;-2.03;100.00;99265.28;5084338;28;20044;-74
2022/01/10 04:28:40;;;;;;;106.32;49.72;;;;;;;-1.96;100.00;99272.25;5070294;28;20044;-74
2022/01/10 04:31:25;;;;;;;93.03;45.08;;;;;;;-1.95;100.00;99276.53;5084303;28;20040;-74
2022/01/10 04:34:12;;;;;;;97.47;48.72;;;;;;;-1.90;100.00;99287.75;5084190;28;20048;-74
2022/01/10 04:36:56;;;;;;;99.50;44.45;;;;;;;-2.02;100.00;99288.41;5099191;28;20044;-74
2022/01/10 04:39:41;;;;;;;91.65;42.92;;;;;;;-2.14;100.00;99288.22;5084240;28;20047;-74
2022/01/10 04:42:25;;;;;;;97.55;42.10;;;;;;;-2.14;100.00;99293.34;5084005;28;20433;-74
2022/01/10 04:45:11;;;;;;;95.93;43.17;;;;;;;-2.15;100.00;99299.28;5084073;28;20391;-74
2022/01/10 04:47:56;;;;;;;109.35;45.58;;;;;;;-2.32;100.00;99296.44;5083934;28;20036;-74
2022/01/10 04:53:46;;;;;;;103.22;46.90;;;;;;;-2.35;100.00;99322.03;5083383;28;20087;-74
2022/01/10 04:56:34;;;;;;;100.22;48.45;;;;;;;-2.44;100.00;99322.75;5069981;28;20040;-74
2022/01/10 04:59:18;;;;;;;101.75;47.75;;;;;;;-2.46;100.00;99326.09;5083811;28;20044;-74
2022/01/10 05:02:03;;;;;;;97.68;44.25;;;;;;;-2.39;100.00;99335.63;5069653;28;20375;-74
2022/01/10 05:04:48;;;;;;;99.70;45.67;;;;;;;-2.41;100.00;99339.88;5083555;28;20094;-74
2022/01/10 05:07:33;;;;;;;96.15;42.47;;;;;;;-2.42;100.00;99333.88;5069611;28;20105;-74
2022/01/10 05:10:17;;;;;;;94.10;41.90;;;;;;;-2.43;100.00;99350.09;5069638;28;20440;-74
2022/01/10 05:13:03;;;;;;;104.18;43.00;;;;;;;-2.42;100.00;99349.25;5083477;28;20055;-74
2022/01/10 05:15:49;;;;;;;103.72;44.00;;;;;;;-2.51;100.00;99343.94;5083453;28;20345;-74
2022/01/10 05:18:34;;;;;;;94.00;43.08;;;;;;;-2.42;100.00;99361.22;5098302;28;20040;-74
2022/01/10 05:21:20;;;;;;;101.03;44.75;;;;;;;-2.45;100.00;99366.28;5083431;28;20046;-74
2022/01/10 05:24:06;;;;;;;96.75;41.78;;;;;;;-2.52;100.00;99357.63;5069160;28;20039;-74
2022/01/10 05:26:50;;;;;;;106.20;44.40;;;;;;;-2.64;100.00;99373.59;5098129;28;20048;-74
2022/01/10 05:29:38;;;;;;;103.72;45.05;;;;;;;-3.06;100.00;99304.34;5083213;28;20040;-74
2022/01/10 05:32:23;;;;;;;101.25;43.35;;;;;;;-2.67;100.00;99377.81;5083403;28;20040;-74
2022/01/10 05:35:21;;;;;;;100.43;46.20;;;;;;;-2.67;100.00;99393.19;5083135;28;20032;-74
2022/01/10 05:38:05;;;;;;;96.35;41.20;;;;;;;-2.66;100.00;99394.94;5083070;28;20566;-73
2022/01/10 05:40:51;;;;;;;93.78;40.10;;;;;;;-2.67;100.00;99395.75;5082895;28;20044;-74
2022/01/10 05:43:36;;;;;;;105.07;42.53;;;;;;;-2.85;100.00;99399.66;5082905;28;20056;-74
2022/01/10 05:46:20;;;;;;;93.50;40.78;;;;;;;-2.80;100.00;99404.00;5082029;28;20048;-74
2022/01/10 05:49:07;;;;;;;90.57;40.60;;;;;;;-2.86;100.00;99410.75;5081633;28;20417;-77
2022/01/10 05:51:54;;;;;;;91.32;41.63;;;;;;;-2.87;100.00;99415.84;5081696;28;20375;-80
2022/01/10 05:55:06;;;;;;;91.32;38.78;;;;;;;-2.90;100.00;99413.19;5095866;28;20040;-80
2022/01/10 05:57:52;;;;;;;98.70;42.58;;;;;;;-3.06;100.00;99423.09;5095584;28;20051;-80
2022/01/10 06:00:37;;;;;;;84.15;39.95;;;;;;;-3.12;100.00;99430.66;5064337;28;20063;-80
2022/01/10 06:03:22;;;;;;;92.05;42.20;;;;;;;-3.25;100.00;99427.75;5080867;28;20040;-80
2022/01/10 06:06:14;;;;;;;92.85;41.55;;;;;;;-3.24;100.00;99432.06;5080110;28;20055;-80
2022/01/10 06:08:58;;;;;;;88.30;40.03;;;;;;;-3.24;100.00;99427.81;5080550;28;20424;-80
2022/01/10 06:11:43;;;;;;;86.38;41.28;;;;;;;-3.29;100.00;99440.47;5080465;28;20040;-80
2022/01/10 06:14:31;;;;;;;89.18;43.00;;;;;;;-3.20;100.00;99454.34;5080442;28;20077;-80
2022/01/10 06:17:16;;;;;;;90.38;40.35;;;;;;;-3.18;100.00;99463.81;5094808;28;20070;-80
2022/01/10 06:20:02;;;;;;;84.95;38.70;;;;;;;-3.02;100.00;99483.00;5094532;28;20044;-81
2022/01/10 06:22:47;;;;;;;93.55;41.25;;;;;;;-3.03;100.00;99494.06;5080138;28;20115;-80
2022/01/10 06:25:34;;;;;;;86.07;40.53;;;;;;;-3.11;100.00;99504.13;5066691;28;20047;-80
2022/01/10 06:28:18;;;;;;;93.13;41.22;;;;;;;-3.15;100.00;99510.00;5081811;28;20040;-80
2022/01/10 06:31:08;;;;;;;92.72;43.30;;;;;;;-3.31;100.00;99508.75;5098825;28;20048;-79
2022/01/10 06:34:01;;;;;;;91.83;40.70;;;;;;;-3.23;100.00;99520.88;5097387;28;20182;-80
2022/01/10 06:36:46;;;;;;;92.68;40.97;;;;;;;-3.27;100.00;99525.06;5079050;28;20048;-80
2022/01/10 06:39:31;;;;;;;101.15;43.60;;;;;;;-3.31;100.00;99536.06;5110454;28;20422;-80
2022/01/10 06:42:16;;;;;;;100.38;40.53;;;;;;;-3.40;100.00;99551.19;5081741;28;20047;-80
2022/01/10 06:45:01;;;;;;;99.55;41.35;;;;;;;-3.27;100.00;99552.38;5081652;28;20039;-80
2022/01/10 06:47:46;;;;;;;95.15;40.67;;;;;;;-3.23;100.00;99564.44;5098459;28;20334;-80
2022/01/10 06:50:31;;;;;;;89.78;41.47;;;;;;;-3.31;100.00;99557.44;5081535;28;20120;-80
2022/01/10 06:53:17;;;;;;;90.63;39.47;;;;;;;-3.28;100.00;99579.69;5067010;28;20059;-80
2022/01/10 06:56:03;;;;;;;90.65;40.88;;;;;;;-3.51;100.00;99573.94;5081222;28;20421;-80
2022/01/10 06:58:50;;;;;;;87.07;38.83;;;;;;;-3.48;100.00;99579.13;5081114;28;20044;-80
2022/01/10 07:01:44;;;;;;;86.30;40.13;;;;;;;-3.64;100.00;99594.91;5110765;28;20068;-80
2022/01/10 07:04:29;;;;;;;90.20;42.78;;;;;;;-3.61;100.00;99595.84;5096221;28;20040;-80
2022/01/10 07:07:16;;;;;;;87.55;39.28;;;;;;;-3.56;100.00;99598.56;5096435;28;20047;-80
2022/01/10 07:10:04;;;;;;;88.70;39.92;;;;;;;-3.58;100.00;99600.19;5109726;28;20036;-80
2022/01/10 07:12:50;;;;;;;97.00;40.97;;;;;;;-3.48;100.00;99620.09;5081964;28;20097;-80
2022/01/10 07:15:34;;;;;;;85.88;41.67;;;;;;;-3.50;100.00;99624.34;5081390;28;20048;-80
2022/01/10 07:18:23;;;;;;;92.32;41.13;;;;;;;-3.63;100.00;99624.81;5096542;28;20039;-80
2022/01/10 07:21:11;;;;;;;97.80;41.35;;;;;;;-3.59;100.00;99634.31;5067729;28;20448;-80
2022/01/10 07:23:56;;;;;;;94.80;45.28;;;;;;;-3.48;100.00;99630.34;5096026;28;20098;-80
2022/01/10 07:26:40;;;;;;;100.80;47.97;;;;;;;-3.49;100.00;99632.88;5081346;28;20040;-80
2022/01/10 07:29:25;;;;;;;116.10;65.22;;;;;;;-3.53;100.00;99644.75;5081549;28;20036;-80
2022/01/10 07:32:09;;;;;;;97.55;47.47;;;;;;;-3.54;100.00;99655.81;5096770;28;20036;-80
2022/01/10 07:34:53;;;;;;;95.07;44.50;;;;;;;-3.48;100.00;99649.97;5092827;28;20052;-80
2022/01/10 07:37:38;;;;;;;90.68;43.28;;;;;;;-3.42;100.00;99668.94;5109684;28;20469;-80
2022/01/10 07:40:24;;;;;;;91.47;42.65;;;;;;;-3.46;100.00;99656.03;5096557;28;20044;-80
2022/01/10 07:43:09;;;;;;;92.13;44.25;;;;;;;-3.45;100.00;99668.84;5081517;28;20044;-79
2022/01/10 07:46:20;;;;;;;93.97;43.28;;;;;;;-3.38;100.00;99690.38;5096250;28;20119;-80
2022/01/10 07:49:04;;;;;;;93.47;45.22;;;;;;;-3.42;100.00;99680.88;5081320;28;20040;-80
2022/01/10 07:51:48;;;;;;;96.35;44.10;;;;;;;-3.41;100.00;99688.63;5081001;28;20093;-80
2022/01/10 07:54:33;;;;;;;100.10;45.17;;;;;;;-3.46;100.00;99687.63;5066830;28;20044;-80
2022/01/10 07:57:18;;;;;;;92.10;43.45;;;;;;;-3.36;100.00;99704.13;5080943;28;20044;-80
2022/01/10 08:00:05;;;;;;;90.50;42.80;;;;;;;-3.57;100.00;99705.25;5080875;28;20055;-80
2022/01/10 08:02:57;;;;;;;120.63;51.72;;;;;;;-3.47;100.00;99705.50;5081798;28;20497;-80
2022/01/10 08:05:41;;;;;;;104.38;47.97;;;;;;;-3.47;100.00;99715.75;5078147;28;20051;-80
2022/01/10 08:08:26;;;;;;;98.95;45.35;;;;;;;-3.46;100.00;99723.47;5081417;28;20040;-80
2022/01/10 08:11:10;;;;;;;97.57;44.78;;;;;;;-3.42;100.00;99727.00;5097583;28;20074;-81
2022/01/10 08:13:54;;;;;;;103.40;48.17;;;;;;;-3.35;100.00;99734.91;5101586;28;20043;-80
2022/01/10 08:16:38;;;;;;;97.07;44.05;;;;;;;-3.17;100.00;99732.00;5087119;28;20040;-80
2022/01/10 08:19:23;;;;;;;90.57;44.85;;;;;;;-3.22;100.00;99727.56;5129861;28;20047;-79
2022/01/10 08:22:08;;;;;;;91.97;45.17;;;;;;;-3.11;100.00;99745.00;5100957;28;20103;-80
2022/01/10 08:24:53;;;;;;;93.97;41.63;;;;;;;-3.02;100.00;99746.06;5116214;28;20089;-80
2022/01/10 08:27:38;;;;;;;106.57;47.35;;;;;;;-3.18;100.00;99740.53;5087418;28;20374;-79
2022/01/10 08:30:22;;;;;;;104.00;47.22;;;;;;;-3.11;100.00;99762.94;5090789;28;20052;-79
2022/01/10 08:33:07;;;;;;;99.05;44.65;;;;;;;-3.03;100.00;99741.78;5104811;28;20047;-80
2022/01/10 08:35:51;;;;;;;89.00;41.67;;;;;;;-2.76;100.00;99759.63;5090836;28;20043;-80
2022/01/10 08:38:36;;;;;;;89.22;42.20;;;;;;;-2.93;100.00;99757.44;5104571;28;20092;-79
2022/01/10 08:41:21;;;;;;;88.05;41.13;;;;;;;-2.71;100.00;99779.44;5090384;28;20065;-80
2022/01/10 08:44:06;;;;;;;92.15;45.58;;;;;;;-2.67;100.00;99790.63;5090580;28;20046;-80
2022/01/10 08:46:50;;;;;;;104.03;47.53;;;;;;;-2.84;100.00;99790.19;5104709;28;20050;-80
2022/01/10 08:49:35;;;;;;;92.00;44.65;;;;;;;-2.69;100.00;99789.75;5090157;28;20039;-80
2022/01/10 08:52:20;;;;;;;90.07;44.58;;;;;;;-2.56;100.00;99798.66;5087107;28;20075;-80
2022/01/10 08:55:05;;;;;;;103.28;47.47;;;;;;;-2.32;100.00;99811.25;5089988;28;20046;-80
2022/01/10 08:57:49;;;;;;;104.18;45.60;;;;;;;-2.23;100.00;99803.81;5090317;28;20067;-80
2022/01/10 09:00:34;;;;;;;108.80;49.30;;;;;;;-2.09;100.00;99825.56;5089825;28;20039;-80
2022/01/10 09:03:19;;;;;;;115.03;54.33;;;;;;;-2.15;100.00;99820.25;5104415;28;20118;-80
2022/01/10 09:06:04;;;;;;;101.00;46.38;;;;;;;-1.95;100.00;99815.63;5104278;28;20086;-80
2022/01/10 09:08:49;;;;;;;111.60;49.05;;;;;;;-2.18;100.00;99797.97;5101345;28;20055;-80
2022/01/10 09:11:34;;;;;;;115.03;50.85;;;;;;;-1.89;100.00;99816.66;5104034;28;20073;-80
2022/01/10 09:14:19;;;;;;;100.38;47.10;;;;;;;-1.65;100.00;99829.25;5119230;28;20447;-81
2022/01/10 09:17:04;;;;;;;93.15;44.47;;;;;;;-1.53;100.00;99833.78;5118974;28;20040;-81
2022/01/10 09:19:48;;;;;;;102.40;47.45;;;;;;;-1.37;100.00;99834.16;5119422;28;20047;-81
2022/01/10 09:22:32;;;;;;;93.05;44.20;;;;;;;-1.28;100.00;99854.94;5119261;28;20036;-80
2022/01/10 09:25:17;;;;;;;90.07;44.40;;;;;;;-1.08;100.00;99858.81;5104183;28;20055;-81
2022/01/10 09:28:02;;;;;;;90.13;43.15;;;;;;;-1.14;100.00;99860.38;5103637;28;20043;-81
2022/01/10 09:30:47;;;;;;;89.60;43.72;;;;;;;-0.98;100.00;99853.06;5100948;28;20111;-81
2022/01/10 09:33:32;;;;;;;95.82;43.67;;;;;;;-0.86;100.00;99864.47;5089313;28;20329;-81
2022/01/10 09:36:16;;;;;;;94.93;44.30;;;;;;;-0.89;100.00;99879.81;5103670;28;20040;-81
2022/01/10 09:39:02;;;;;;;92.20;42.47;;;;;;;-0.62;100.00;99885.53;5118219;28;20039;-81
2022/01/10 09:41:48;;;;;;;92.70;43.20;;;;;;;-0.40;100.00;99886.88;5103897;28;20404;-81
2022/01/10 09:44:34;;;;;;;95.03;46.88;;;;;;;-0.39;100.00;99891.19;5118536;28;20039;-81
2022/01/10 09:47:18;;;;;;;97.97;45.35;;;;;;;-0.52;100.00;99896.91;5103412;28;20040;-81
2022/01/10 09:50:06;;;;;;;88.97;42.85;;;;;;;-0.31;100.00;99891.34;5118230;28;20051;-82
2022/01/10 09:52:51;;;;;;;96.95;44.30;;;;;;;-0.45;100.00;99885.06;5103030;28;20059;-82
2022/01/10 09:55:36;;;;;;;90.97;43.72;;;;;;;-0.34;100.00;99905.00;5118536;28;20043;-82
2022/01/10 09:58:20;;;;;;;87.85;41.85;;;;;;;-0.14;100.00;99904.53;5103123;28;20043;-81
2022/01/10 10:01:04;;;;;;;91.15;42.70;;;;;;;-0.02;100.00;99905.66;5132121;27;20051;-80
2022/01/10 10:03:50;;;;;;;76.82;39.55;;;;;;;0.10;100.00;99902.44;5117826;28;20348;-80
2022/01/10 10:06:35;;;;;;;76.75;40.05;;;;;;;0.03;100.00;99900.56;5103169;28;20067;-82
2022/01/10 10:09:19;;;;;;;80.93;39.55;;;;;;;0.06;100.00;99899.75;5103212;28;20044;-81
2022/01/10 10:12:05;;;;;;;80.43;37.08;;;;;;;-0.16;100.00;99901.94;5102951;28;20055;-80
2022/01/10 10:14:50;;;;;;;83.65;39.47;;;;;;;-0.27;100.00;99926.59;5105159;27;20047;-81
2022/01/10 10:17:37;;;;;;;73.30;37.15;;;;;;;-0.02;100.00;99909.94;5088350;28;20055;-82
2022/01/10 10:20:24;;;;;;;78.55;36.25;;;;;;;0.31;100.00;99926.84;5087726;28;20410;-81
2022/01/10 10:23:15;;;;;;;85.43;39.78;;;;;;;0.68;100.00;99936.97;5102349;28;20035;-80
2022/01/10 10:25:59;;;;;;;77.05;37.35;;;;;;;0.43;100.00;99935.69;5116306;28;20035;-80
2022/01/10 10:28:46;;;;;;;74.10;35.17;;;;;;;0.61;100.00;99947.13;5129129;27;20039;-80
2022/01/10 10:31:42;;;;;;;78.75;37.42;;;;;;;0.42;100.00;99941.69;5086055;28;20044;-81
2022/01/10 10:34:28;;;;;;;94.18;44.47;;;;;;;0.62;100.00;99944.59;5086056;28;20436;-81
2022/01/10 10:37:14;;;;;;;191.38;72.28;;;;;;;0.94;100.00;99970.03;5100146;28;20469;-80
2022/01/10 10:39:59;;;;;;;88.85;44.35;;;;;;;0.93;100.00;99968.31;5100567;28;20432;-81
2022/01/10 10:42:45;;;;;;;105.00;46.38;;;;;;;1.00;100.00;99972.72;5115232;28;20035;-83
2022/01/10 10:45:30;;;;;;;127.93;52.70;;;;;;;0.67;100.00;99968.72;5115177;28;20047;-79
2022/01/10 10:48:15;;;;;;;138.48;60.47;;;;;;;0.60;100.00;99955.72;5128863;27;20044;-80
2022/01/10 10:51:01;;;;;;;99.20;48.72;;;;;;;0.88;100.00;99988.03;5085405;28;20039;-80
2022/01/10 10:53:46;;;;;;;72.05;37.95;;;;;;;0.77;100.00;99977.50;5100410;28;20355;-80
2022/01/10 10:56:35;;;;;;;109.13;52.10;;;;;;;0.83;100.00;99990.50;5100956;28;20051;-80
2022/01/10 10:59:24;;;;;;;123.68;48.88;;;;;;;0.85;100.00;99988.81;5101243;28;20040;-80
2022/01/10 11:02:09;;;;;;;111.72;46.70;;;;;;;0.66;100.00;100003.09;5115248;28;20097;-80
2022/01/10 11:04:54;;;;;;;90.03;41.97;;;;;;;0.53;100.00;100003.72;5085593;28;20046;-80
2022/01/10 11:07:44;;;;;;;205.50;75.70;;;;;;;0.80;100.00;100010.22;5115502;28;20381;-80
2022/01/10 11:10:29;;;;;;;128.30;51.72;;;;;;;0.64;100.00;100011.66;5086128;28;20039;-80
2022/01/10 11:13:14;;;;;;;85.88;41.83;;;;;;;0.76;100.00;100014.44;5100279;28;20039;-80
2022/01/10 11:15:59;;;;;;;93.35;43.72;;;;;;;0.90;100.00;100025.88;5116120;28;20554;-80
2022/01/10 11:18:44;;;;;;;71.53;36.35;;;;;;;0.58;100.00;100038.16;5086361;28;20040;-81
2022/01/10 11:21:28;;;;;;;167.20;69.07;;;;;;;0.87;100.00;100032.69;5085062;28;20043;-80
2022/01/10 11:24:50;;;;;;;71.63;35.03;;;;;;;0.35;100.00;100039.44;5099316;28;20583;-81
2022/01/10 11:27:39;;;;;;;136.45;58.30;;;;;;;0.64;100.00;100037.44;5099274;28;20040;-80
2022/01/10 11:30:44;;;;;;;76.13;37.60;;;;;;;0.78;100.00;100046.31;5099380;28;20073;-80
2022/01/10 11:33:35;;;;;;;85.15;40.90;;;;;;;0.72;100.00;100050.47;5114869;28;20469;-81
2022/01/10 11:36:27;;;;;;;106.25;50.65;;;;;;;0.86;100.00;100059.31;5101154;28;20047;-80
2022/01/10 11:39:13;;;;;;;98.53;46.20;;;;;;;0.95;100.00;100050.91;5116513;28;20097;-81
2022/01/10 11:41:58;;;;;;;93.68;42.15;;;;;;;0.49;100.00;100062.91;5101337;28;20035;-80
2022/01/10 11:45:09;;;;;;;98.28;44.72;;;;;;;0.82;100.00;100076.47;5069829;28;20143;-80
2022/01/10 11:48:05;;;;;;;90.28;43.88;;;;;;;0.80;100.00;100077.25;5086920;28;20040;-81
2022/01/10 11:50:49;;;;;;;88.60;40.75;;;;;;;0.76;100.00;100081.50;5101344;28;20040;-81
2022/01/10 11:53:34;;;;;;;81.43;40.97;;;;;;;1.00;100.00;100085.34;5100995;28;20059;-81
2022/01/10 11:56:23;;;;;;;78.55;38.22;;;;;;;1.02;100.00;100088.84;5116670;28;20040;-81
2022/01/10 11:59:16;;;;;;;86.68;42.40;;;;;;;0.92;100.00;100088.66;5100986;28;20428;-80
2022/01/10 12:02:10;;;;;;;90.43;41.85;;;;;;;0.57;100.00;100081.97;5116715;28;20048;-81
2022/01/10 12:05:00;;;;;;;89.03;43.40;;;;;;;0.82;100.00;100099.66;5133826;27;20051;-81
2022/01/10 12:07:45;;;;;;;81.35;41.03;;;;;;;0.99;100.00;100106.84;5120541;28;20039;-81
2022/01/10 12:10:31;;;;;;;94.47;46.25;;;;;;;1.04;100.00;100113.84;5091302;28;20048;-82
2022/01/10 12:13:16;;;;;;;86.22;41.08;;;;;;;0.73;100.00;100125.28;5104880;28;20051;-81
2022/01/10 12:16:00;;;;;;;82.88;41.83;;;;;;;0.64;100.00;100137.97;5090346;28;20039;-82
2022/01/10 12:18:45;;;;;;;84.70;42.80;;;;;;;0.17;100.00;100141.28;5090638;28;20039;-82
2022/01/10 12:21:31;;;;;;;88.60;45.28;;;;;;;0.29;100.00;100124.34;5104852;28;20052;-81
2022/01/10 12:24:15;;;;;;;91.10;44.63;;;;;;;0.22;100.00;100137.09;5119723;28;20043;-79
2022/01/10 12:27:02;;;;;;;82.38;40.90;;;;;;;0.10;100.00;100148.84;5103452;28;20089;-78
2022/01/10 12:29:46;;;;;;;87.28;43.75;;;;;;;-0.25;100.00;100149.78;5088375;28;20420;-79
2022/01/10 12:32:34;;;;;;;92.05;42.90;;;;;;;-0.24;100.00;100145.50;5117682;28;20043;-78
2022/01/10 12:35:19;;;;;;;88.32;42.28;;;;;;;-0.03;100.00;100170.91;5088134;28;20039;-79
2022/01/10 12:38:04;;;;;;;88.00;41.65;;;;;;;0.05;100.00;100171.94;5102448;28;20096;-79
2022/01/10 12:40:49;;;;;;;87.53;43.22;;;;;;;-0.38;100.00;100157.16;5102264;28;20036;-77
2022/01/10 12:43:34;;;;;;;96.13;43.30;;;;;;;-0.31;100.00;100177.06;5117439;28;20051;-78
2022/01/10 12:46:20;;;;;;;82.65;42.10;;;;;;;-0.13;100.00;100181.78;5102217;28;20111;-78